Time;durP1;ratioP1;P1;durP2;ratioP2;P2;SDS_P1;SDS_P2;PMS_P1;PMS_P2;Temp;Humidity;BMP_temperature;BMP_pressure;BME280_temperature;BME280_humidity;BME280_pressure;Samples;Min_cycle;Max_cycle;Signal;HPM_P1;HPM_P2
2023/03/29 00:04:14;;;;;;;10.90;5.40;;;;;;;2.31;42.55;99644.58;223612;182;138589;-73
2023/03/29 00:09:18;;;;;;;9.20;5.30;;;;;;;2.26;42.67;99646.21;223741;182;137595;-74
2023/03/29 00:14:22;;;;;;;11.30;5.00;;;;;;;2.21;42.52;99648.43;223731;182;147335;-73
2023/03/29 00:19:25;;;;;;;12.40;6.00;;;;;;;2.17;42.74;99650.95;223714;182;138575;-73
2023/03/29 00:24:29;;;;;;;13.90;6.40;;;;;;;2.10;42.81;99649.66;223603;182;139434;-73
2023/03/29 00:29:33;;;;;;;16.20;6.50;;;;;;;1.96;43.25;99654.10;223673;182;147140;-73
2023/03/29 00:34:36;;;;;;;15.40;7.10;;;;;;;1.89;43.47;99660.19;223746;182;138913;-73
2023/03/29 00:39:40;;;;;;;14.50;7.20;;;;;;;1.86;43.52;99656.91;223804;182;136587;-73
2023/03/29 00:45:02;;;;;;;17.20;7.80;;;;;;;1.88;43.70;99659.66;223691;182;147116;-73
2023/03/29 00:50:13;;;;;;;15.10;7.60;;;;;;;1.94;43.65;99662.39;223855;182;139167;-73
2023/03/29 00:55:21;;;;;;;18.60;9.00;;;;;;;1.87;43.57;99662.30;223732;183;136682;-73
2023/03/29 01:00:34;;;;;;;17.80;8.20;;;;;;;1.74;43.74;99663.25;223654;183;147606;-73
2023/03/29 01:05:41;;;;;;;16.60;9.00;;;;;;;1.69;43.80;99656.83;223602;182;139026;-74
2023/03/29 01:10:54;;;;;;;14.90;8.00;;;;;;;1.69;43.96;99650.71;223725;183;137489;-74
2023/03/29 01:15:58;;;;;;;17.60;9.00;;;;;;;1.70;43.96;99646.69;223740;182;147097;-74
2023/03/29 01:21:22;;;;;;;21.00;9.00;;;;;;;1.67;43.81;99648.13;223657;182;138948;-74
2023/03/29 01:26:33;;;;;;;17.50;9.40;;;;;;;1.64;43.87;99645.89;223683;183;136906;-74
2023/03/29 01:31:40;;;;;;;19.90;9.20;;;;;;;1.58;44.00;99644.95;223547;183;147111;-73
2023/03/29 01:37:00;;;;;;;25.20;10.10;;;;;;;1.49;44.18;99640.02;223622;183;139918;-73
2023/03/29 01:42:19;;;;;;;18.80;9.90;;;;;;;1.41;44.45;99634.73;223813;182;136863;-73
2023/03/29 01:47:31;;;;;;;20.80;10.60;;;;;;;1.31;44.61;99637.14;223706;183;147683;-73
2023/03/29 01:52:41;;;;;;;21.40;9.80;;;;;;;1.26;44.76;99640.19;223689;183;138892;-73
2023/03/29 01:57:47;;;;;;;20.20;9.60;;;;;;;1.20;45.11;99633.98;223762;183;136805;-73
2023/03/29 02:02:59;;;;;;;22.00;9.50;;;;;;;1.13;45.17;99638.98;222884;182;147441;-73
2023/03/29 02:08:04;;;;;;;19.50;10.00;;;;;;;1.12;45.30;99646.34;223689;182;140198;-73
2023/03/29 02:13:08;;;;;;;19.40;9.90;;;;;;;1.14;45.54;99647.35;223608;183;136627;-73
2023/03/29 02:18:15;;;;;;;20.60;10.80;;;;;;;1.19;45.51;99647.63;223695;183;147869;-73
2023/03/29 02:23:39;;;;;;;19.70;11.20;;;;;;;1.26;45.54;99641.76;223564;183;138680;-73
2023/03/29 02:28:43;;;;;;;28.20;12.10;;;;;;;1.30;45.64;99638.22;223643;182;137038;-73
2023/03/29 02:33:59;;;;;;;25.00;12.90;;;;;;;1.30;45.75;99633.48;223555;183;147186;-72
2023/03/29 02:39:04;;;;;;;25.20;12.50;;;;;;;1.29;46.11;99641.21;223755;182;138383;-73
2023/03/29 02:44:12;;;;;;;25.30;12.80;;;;;;;1.18;46.28;99639.78;223633;183;138040;-73
2023/03/29 02:49:16;;;;;;;22.20;12.30;;;;;;;1.03;46.58;99640.52;223788;183;149148;-73
2023/03/29 02:54:28;;;;;;;23.40;12.60;;;;;;;0.93;47.01;99642.21;223563;183;138897;-72
2023/03/29 02:59:33;;;;;;;27.70;12.90;;;;;;;0.83;47.31;99644.46;223769;183;137649;-72
2023/03/29 03:04:37;;;;;;;26.80;13.20;;;;;;;0.84;47.43;99646.88;221533;182;147892;-72
2023/03/29 03:09:40;;;;;;;25.40;13.90;;;;;;;0.80;47.68;99642.39;223649;182;139711;-72
2023/03/29 03:14:44;;;;;;;29.70;14.40;;;;;;;0.76;47.92;99641.39;223683;183;137110;-73
2023/03/29 03:19:48;;;;;;;29.00;14.60;;;;;;;0.71;48.02;99645.65;223765;182;147665;-72
2023/03/29 03:24:52;;;;;;;30.40;14.70;;;;;;;0.65;48.37;99650.43;223643;183;140536;-72
2023/03/29 03:29:56;;;;;;;27.90;14.00;;;;;;;0.57;48.43;99652.63;223665;183;136739;-72
2023/03/29 03:35:21;;;;;;;29.50;14.90;;;;;;;0.50;48.85;99650.61;223753;183;149543;-72
2023/03/29 03:40:25;;;;;;;29.00;14.20;;;;;;;0.47;48.97;99657.45;223055;183;138892;-73
2023/03/29 03:45:30;;;;;;;28.70;14.70;;;;;;;0.48;48.95;99655.70;223586;183;136897;-73
2023/03/29 03:50:57;;;;;;;28.10;14.40;;;;;;;0.49;48.98;99655.70;223362;182;146943;-74
2023/03/29 03:56:07;;;;;;;34.70;14.90;;;;;;;0.48;49.16;99648.55;223591;182;138195;-73
2023/03/29 04:01:22;;;;;;;31.90;16.10;;;;;;;0.53;49.20;99655.46;223721;182;136595;-75
2023/03/29 04:06:34;;;;;;;55.40;26.80;;;;;;;0.61;49.67;99660.95;223664;183;147665;-73
2023/03/29 04:12:00;;;;;;;34.80;16.30;;;;;;;0.56;50.32;99663.10;223444;183;138396;-74
2023/03/29 04:17:04;;;;;;;33.30;16.80;;;;;;;0.50;49.42;99658.81;223541;183;136976;-74
2023/03/29 04:22:24;;;;;;;34.80;17.00;;;;;;;0.41;49.44;99659.45;223382;183;147034;-74
2023/03/29 04:27:28;;;;;;;33.00;16.40;;;;;;;0.36;49.65;99661.58;223509;184;138705;-75
2023/03/29 04:32:32;;;;;;;32.30;16.70;;;;;;;0.37;49.60;99661.05;223634;183;137241;-72
2023/03/29 04:37:41;;;;;;;35.30;17.60;;;;;;;0.37;49.73;99658.79;223580;183;146980;-75
2023/03/29 04:42:46;;;;;;;36.30;17.40;;;;;;;0.38;49.60;99661.23;223445;183;138928;-76
2023/03/29 04:47:49;;;;;;;32.60;16.20;;;;;;;0.42;49.64;99656.11;223558;183;136995;-74
2023/03/29 04:52:54;;;;;;;52.90;29.40;;;;;;;0.37;50.49;99654.08;223637;183;147511;-73
2023/03/29 05:04:58;;;;;;;35.20;18.30;;;;;;;0.39;49.90;99655.61;223344;183;137491;-66
2023/03/29 05:10:03;;;;;;;32.60;17.80;;;;;;;0.38;49.82;99656.34;223704;183;149817;-66
2023/03/29 05:15:08;;;;;;;34.50;17.70;;;;;;;0.28;50.13;99650.85;223591;183;138116;-65
2023/03/29 05:20:12;;;;;;;42.20;22.20;;;;;;;0.27;50.29;99651.73;223716;183;137560;-67
2023/03/29 05:25:18;;;;;;;37.90;17.30;;;;;;;0.28;50.34;99655.57;223640;183;147197;-65
2023/03/29 05:30:21;;;;;;;34.30;17.40;;;;;;;0.28;50.53;99652.79;223605;183;140436;-65
2023/03/29 05:35:34;;;;;;;92.00;46.10;;;;;;;0.25;50.89;99655.06;223628;183;136888;-65
2023/03/29 05:42:54;;;;;;;32.10;16.00;;;;;;;0.34;50.84;99656.73;221314;192;675234;-63
2023/03/29 05:48:22;;;;;;;35.60;16.20;;;;;;;0.40;50.86;99659.80;223798;183;136753;-64
2023/03/29 05:53:39;;;;;;;35.80;15.20;;;;;;;0.51;50.90;99656.89;223863;183;143526;-64
2023/03/29 05:58:45;;;;;;;31.70;15.60;;;;;;;0.58;50.77;99656.63;223612;182;138457;-64
2023/03/29 06:04:13;;;;;;;28.20;14.40;;;;;;;0.75;50.80;99653.98;223732;183;137275;-65
2023/03/29 06:09:38;;;;;;;33.60;14.20;;;;;;;0.88;50.75;99651.37;223788;183;143885;-65
2023/03/29 06:14:47;;;;;;;28.90;13.90;;;;;;;1.05;50.46;99654.98;223676;183;138589;-64
2023/03/29 06:20:14;;;;;;;124.00;68.30;;;;;;;1.14;50.21;99657.48;223874;182;136064;-65
2023/03/29 06:25:30;;;;;;;27.60;15.00;;;;;;;1.33;50.17;99658.44;223759;183;143250;-66
2023/03/29 06:30:55;;;;;;;22.20;11.60;;;;;;;1.54;49.27;99652.36;223695;183;139521;-65
2023/03/29 06:36:02;;;;;;;17.10;9.80;;;;;;;1.73;48.35;99657.13;223779;183;136892;-66
2023/03/29 06:46:46;;;;;;;18.90;10.00;;;;;;;1.86;47.15;99659.36;222103;193;666336;-67
2023/03/29 06:51:50;;;;;;;18.20;10.00;;;;;;;1.89;46.74;99666.11;223656;184;136187;-67
2023/03/29 06:56:53;;;;;;;19.40;10.00;;;;;;;1.95;46.53;99664.11;223645;184;144048;-68
2023/03/29 07:01:58;;;;;;;18.40;9.90;;;;;;;1.98;46.79;99667.38;223653;183;139171;-66
2023/03/29 07:07:26;;;;;;;23.40;11.20;;;;;;;2.11;46.37;99663.13;223745;183;136127;-69
2023/03/29 07:12:40;;;;;;;17.80;9.40;;;;;;;2.21;46.16;99662.09;223654;182;144183;-66
2023/03/29 07:17:50;;;;;;;16.90;9.10;;;;;;;2.30;45.78;99660.67;223732;183;138413;-66
2023/03/29 07:22:56;;;;;;;18.80;9.00;;;;;;;2.52;44.86;99664.80;223603;183;139363;-69
2023/03/29 07:28:05;;;;;;;16.80;8.90;;;;;;;2.66;44.61;99661.41;223693;183;143486;-66
2023/03/29 07:56:18;;;;;;;;;;;;;;;;;;;;;
2023/03/29 08:03:17;;;;;;;13.50;8.10;;;;;;;3.48;40.64;99660.49;219864;193;691009;-68
2023/03/29 08:53:40;;;;;;;10.10;4.30;;;;;;;4.73;35.73;99622.33;224041;183;143374;-65
2023/03/29 08:58:58;;;;;;;8.90;4.10;;;;;;;4.88;36.09;99621.33;223724;183;138892;-65
2023/03/29 09:04:13;;;;;;;6.60;3.80;;;;;;;5.09;34.77;99617.20;223753;183;136674;-64
2023/03/29 09:10:36;;;;;;;6.80;3.30;;;;;;;5.15;34.24;99615.27;223785;183;146487;-63
2023/03/29 09:17:25;;;;;;;7.50;3.50;;;;;;;5.24;33.95;99606.88;223357;187;138424;-63
2023/03/29 09:24:34;;;;;;;6.90;2.70;;;;;;;5.48;34.02;99598.40;223514;188;136527;-63
2023/03/29 09:31:33;;;;;;;;;;;;;;;;;;;;;
2023/03/29 09:49:09;;;;;;;7.20;3.40;;;;;;;6.13;33.52;99581.27;223779;184;145854;-62
2023/03/29 09:55:15;;;;;;;6.20;3.70;;;;;;;6.17;34.10;99571.77;223963;184;138333;-63
2023/03/29 10:00:59;;;;;;;8.30;4.00;;;;;;;6.40;33.61;99565.33;223890;183;136112;-63
2023/03/29 10:06:53;;;;;;;5.30;3.30;;;;;;;6.57;32.95;99559.94;223843;184;145081;-63
2023/03/29 10:18:44;;;;;;;5.40;3.20;;;;;;;6.75;33.03;99556.09;223234;187;135372;-65
2023/03/29 10:31:04;;;;;;;6.50;4.00;;;;;;;7.36;31.81;99543.95;223449;183;138577;-66
2023/03/29 10:36:53;;;;;;;6.20;3.90;;;;;;;7.63;32.27;99539.31;223757;184;136457;-63
2023/03/29 10:42:52;;;;;;;5.70;3.50;;;;;;;8.01;31.62;99535.94;221775;193;667034;-64
2023/03/29 10:48:28;;;;;;;;;;;;;;;8.25;30.67;99534.36;223477;187;135883;-64
2023/03/29 10:54:37;;;;;;;5.50;2.80;;;;;;;8.39;29.80;99525.23;223246;186;144701;-66
2023/03/29 11:00:08;;;;;;;5.40;2.60;;;;;;;8.41;29.95;99521.30;223081;187;138662;-64
2023/03/29 11:05:32;;;;;;;5.80;2.80;;;;;;;8.35;29.72;99513.20;223294;186;136427;-65
2023/03/29 11:11:09;;;;;;;5.80;2.70;;;;;;;8.56;29.71;99507.85;223344;187;144397;-64
2023/03/29 11:16:17;;;;;;;4.10;2.40;;;;;;;8.79;28.43;99503.09;223391;187;138049;-63
2023/03/29 11:22:49;;;;;;;6.10;2.30;;;;;;;8.81;28.95;99497.52;222820;188;135581;-65
2023/03/29 11:29:32;;;;;;;4.00;2.60;;;;;;;8.91;28.78;99489.78;222833;188;143668;-63
2023/03/29 11:35:33;;;;;;;7.20;2.60;;;;;;;9.28;27.77;99484.95;223961;181;139992;-63
2023/03/29 11:47:09;;;;;;;6.20;2.70;;;;;;;9.89;26.89;99468.89;219802;193;666126;-63
2023/03/29 11:52:21;;;;;;;5.20;2.90;;;;;;;9.96;26.35;99462.33;223280;187;136700;-64
2023/03/29 11:57:29;;;;;;;6.20;2.40;;;;;;;10.17;27.48;99449.52;223521;184;143177;-65
2023/03/29 12:02:46;;;;;;;4.20;2.30;;;;;;;10.48;27.29;99453.02;223427;184;139942;-64
2023/03/29 12:08:05;;;;;;;5.50;2.30;;;;;;;10.92;26.96;99440.61;223499;184;136101;-65
2023/03/29 12:13:19;;;;;;;5.50;2.10;;;;;;;11.34;26.12;99435.88;223766;183;143613;-64
2023/03/29 12:18:39;;;;;;;4.80;2.40;;;;;;;11.55;25.11;99434.97;223690;183;139362;-65
2023/03/29 12:23:44;;;;;;;5.40;2.30;;;;;;;11.80;25.46;99427.61;223780;183;136241;-64
2023/03/29 12:29:19;;;;;;;3.50;2.40;;;;;;;11.98;24.59;99422.25;223459;183;144104;-64
2023/03/29 12:34:39;;;;;;;4.10;1.80;;;;;;;12.07;24.35;99411.22;223690;182;138900;-65
2023/03/29 12:42:52;;;;;;;5.40;2.40;;;;;;;12.37;24.31;99399.71;219656;193;675846;-67
2023/03/29 12:48:21;;;;;;;2.60;2.00;;;;;;;12.74;24.07;99400.34;223712;183;136059;-66
2023/03/29 12:53:44;;;;;;;4.40;2.30;;;;;;;12.87;23.21;99398.48;223762;182;143271;-65
2023/03/29 12:59:09;;;;;;;4.40;2.30;;;;;;;13.10;23.78;99387.48;223590;182;140484;-63
2023/03/29 14:05:37;;;;;;;4.10;2.10;;;;;;;16.01;24.61;99304.61;220838;193;666281;-67
2023/03/29 14:10:43;;;;;;;3.30;1.90;;;;;;;15.66;23.77;99301.59;223517;185;136741;-66
2023/03/29 14:15:53;;;;;;;3.30;1.60;;;;;;;15.22;24.71;99302.13;223396;184;144254;-65
2023/03/29 14:20:59;;;;;;;2.30;1.70;;;;;;;14.87;25.43;99298.95;223515;184;138980;-67
2023/03/29 14:26:13;;;;;;;4.80;2.00;;;;;;;14.66;24.76;99298.73;223645;183;136045;-65
2023/03/29 14:31:37;;;;;;;3.80;2.00;;;;;;;14.55;25.08;99298.80;223612;184;144295;-65
2023/03/29 14:36:44;;;;;;;70.10;50.20;;;;;;;14.30;25.58;99296.17;223590;184;138598;-71
2023/03/29 14:41:50;;;;;;;6.60;2.40;;;;;;;13.80;24.16;99295.14;223468;183;136713;-73
2023/03/29 14:46:55;;;;;;;4.90;2.20;;;;;;;13.26;24.36;99298.41;223522;194;146622;-71
2023/03/29 14:51:59;;;;;;;6.20;2.50;;;;;;;12.77;24.96;99298.50;223390;183;139260;-71
2023/03/29 14:57:07;;;;;;;4.50;2.50;;;;;;;12.36;25.49;99294.10;223378;184;137134;-71
2023/03/29 15:02:30;;;;;;;7.40;2.60;;;;;;;11.99;25.77;99297.76;223396;183;144897;-71
2023/03/29 15:07:38;;;;;;;5.90;2.80;;;;;;;11.74;26.31;99295.05;223273;183;138615;-71
2023/03/29 15:12:42;;;;;;;5.80;2.90;;;;;;;11.63;26.74;99288.23;223428;183;136212;-71
2023/03/29 15:17:47;;;;;;;5.50;3.00;;;;;;;11.52;26.98;99285.20;223506;183;145923;-71
2023/03/29 15:23:03;;;;;;;8.90;3.20;;;;;;;11.41;27.61;99287.62;223419;183;138334;-71
2023/03/29 15:28:25;;;;;;;4.60;2.90;;;;;;;11.30;28.08;99282.45;223455;183;136739;-74
2023/03/29 15:33:35;;;;;;;5.00;2.90;;;;;;;11.15;28.55;99284.64;220790;183;145503;-74
2023/03/29 15:38:41;;;;;;;4.50;3.00;;;;;;;11.09;28.66;99279.47;223511;182;139466;-73
2023/03/29 15:43:47;;;;;;;8.10;3.60;;;;;;;10.99;28.95;99276.34;223379;182;136771;-72
2023/03/29 15:48:51;;;;;;;7.50;3.40;;;;;;;10.85;29.07;99271.64;223402;182;145276;-73
2023/03/29 15:53:54;;;;;;;7.80;3.30;;;;;;;10.79;29.50;99269.54;223486;182;139139;-73
2023/03/29 15:59:00;;;;;;;6.40;3.00;;;;;;;10.72;29.53;99262.52;223529;184;136686;-73
2023/03/29 16:04:05;;;;;;;5.40;3.10;;;;;;;10.62;29.52;99260.39;223560;183;145777;-73
2023/03/29 16:09:10;;;;;;;6.00;2.90;;;;;;;10.55;29.43;99268.64;223323;182;138769;-73
2023/03/29 16:14:21;;;;;;;8.50;3.10;;;;;;;10.46;29.43;99268.98;223526;181;137071;-73
2023/03/29 16:19:27;;;;;;;6.40;3.10;;;;;;;10.41;29.62;99266.95;223400;182;145598;-73
2023/03/29 16:24:31;;;;;;;4.80;3.00;;;;;;;10.41;29.70;99264.29;223395;182;138929;-71
2023/03/29 16:29:35;;;;;;;9.50;3.60;;;;;;;10.42;29.81;99261.27;223450;204;136950;-74
2023/03/29 16:34:39;;;;;;;7.90;3.00;;;;;;;10.35;29.96;99257.02;223545;183;146725;-72
2023/03/29 16:39:45;;;;;;;4.20;2.60;;;;;;;10.27;29.83;99261.76;223533;182;139969;-71
2023/03/29 16:44:48;;;;;;;4.20;2.80;;;;;;;10.17;30.12;99263.33;223399;182;137019;-74
2023/03/29 16:49:52;;;;;;;5.00;3.00;;;;;;;10.06;30.12;99254.21;223302;182;145454;-75
2023/03/29 16:54:55;;;;;;;7.50;3.00;;;;;;;9.99;30.31;99253.02;223377;182;138155;-74
2023/03/29 16:59:59;;;;;;;6.20;3.30;;;;;;;9.89;30.37;99249.14;223576;182;136522;-70
2023/03/29 17:05:03;;;;;;;8.50;3.50;;;;;;;9.83;30.41;99248.94;223382;192;146146;-71
2023/03/29 17:10:08;;;;;;;6.60;3.40;;;;;;;9.79;30.73;99249.86;223387;182;138153;-72
2023/03/29 17:15:11;;;;;;;9.60;3.40;;;;;;;9.72;30.92;99250.64;223454;183;136783;-71
2023/03/29 17:20:15;;;;;;;7.10;3.50;;;;;;;9.66;31.08;99248.80;220062;182;146086;-74
2023/03/29 17:25:21;;;;;;;5.00;3.00;;;;;;;9.60;31.24;99249.15;223189;184;138928;-73
2023/03/29 17:30:26;;;;;;;7.80;3.70;;;;;;;9.54;31.36;99249.70;223324;182;136457;-75
2023/03/29 17:35:30;;;;;;;11.30;3.60;;;;;;;9.48;31.75;99255.47;223448;191;145395;-72
2023/03/29 17:40:34;;;;;;;12.10;5.10;;;;;;;9.45;31.97;99263.95;223314;182;139087;-73
2023/03/29 17:45:40;;;;;;;9.30;5.20;;;;;;;9.51;32.68;99269.34;223459;183;136208;-75
2023/03/29 17:50:43;;;;;;;11.40;4.10;;;;;;;9.49;32.16;99267.98;223398;183;145598;-73
2023/03/29 17:55:47;;;;;;;9.60;3.80;;;;;;;9.39;32.50;99266.92;223404;182;138273;-74
2023/03/29 18:00:50;;;;;;;13.10;4.80;;;;;;;9.27;33.64;99265.98;223412;182;136396;-75
2023/03/29 18:05:55;;;;;;;20.30;4.70;;;;;;;9.10;34.46;99263.69;223379;182;145849;-71
2023/03/29 18:11:12;;;;;;;14.30;4.10;;;;;;;8.95;34.36;99269.58;223265;215;139218;-72
2023/03/29 18:16:16;;;;;;;7.30;4.30;;;;;;;8.91;34.56;99277.26;222726;182;136904;-72
2023/03/29 18:21:20;;;;;;;15.70;5.60;;;;;;;8.95;34.24;99281.29;223500;182;145632;-72
2023/03/29 18:26:24;;;;;;;13.10;6.60;;;;;;;8.92;34.11;99283.59;223531;192;139758;-71
2023/03/29 18:31:28;;;;;;;16.90;7.50;;;;;;;8.84;34.38;99281.34;223472;182;136186;-71
2023/03/29 18:36:31;;;;;;;15.90;7.70;;;;;;;8.77;34.65;99283.30;223434;182;144547;-70
2023/03/29 18:41:36;;;;;;;125.60;83.30;;;;;;;8.70;35.15;99290.14;223474;205;139065;-71
2023/03/29 18:46:39;;;;;;;18.10;9.70;;;;;;;8.72;35.61;99290.45;223663;183;136866;-71
2023/03/29 18:51:45;;;;;;;15.80;8.50;;;;;;;8.70;35.74;99292.98;223508;182;146057;-71
2023/03/29 18:56:48;;;;;;;19.20;9.10;;;;;;;8.61;35.91;99282.67;223423;186;138575;-71
2023/03/29 19:01:52;;;;;;;53.60;36.80;;;;;;;8.56;36.94;99280.45;223456;182;137273;-71
2023/03/29 19:06:55;;;;;;;21.80;11.10;;;;;;;8.62;37.20;99278.39;223387;216;145929;-73
2023/03/29 19:11:59;;;;;;;20.80;10.80;;;;;;;8.53;37.25;99272.11;223459;182;138904;-73
2023/03/29 19:17:02;;;;;;;20.40;10.90;;;;;;;8.45;37.64;99279.74;223597;204;136728;-74
2023/03/29 19:22:06;;;;;;;321.50;220.50;;;;;;;8.35;38.25;99282.67;221022;183;146241;-74
2023/03/29 19:27:09;;;;;;;36.30;18.10;;;;;;;8.32;38.91;99282.34;223463;182;139294;-75
2023/03/29 19:32:15;;;;;;;20.80;11.00;;;;;;;8.26;38.74;99280.11;221652;182;136912;-76
2023/03/29 19:37:19;;;;;;;22.60;10.00;;;;;;;8.16;38.89;99279.92;223435;182;145725;-75
2023/03/29 19:42:22;;;;;;;17.90;9.80;;;;;;;8.11;39.07;99275.70;223434;182;138074;-75
2023/03/29 19:47:26;;;;;;;20.90;10.50;;;;;;;8.06;39.39;99269.23;223520;192;136141;-74
2023/03/29 19:52:30;;;;;;;23.90;11.30;;;;;;;7.97;39.69;99268.45;223519;182;145338;-72
2023/03/29 19:57:33;;;;;;;111.20;75.10;;;;;;;7.85;40.26;99266.70;223508;182;138598;-73
2023/03/29 20:02:37;;;;;;;24.30;13.40;;;;;;;7.88;40.51;99271.01;221950;182;137914;-71
2023/03/29 20:07:41;;;;;;;21.50;10.80;;;;;;;7.80;40.52;99275.05;223459;182;148425;-72
2023/03/29 20:12:46;;;;;;;21.70;11.10;;;;;;;7.65;41.21;99276.31;223415;182;139167;-72
2023/03/29 20:17:52;;;;;;;20.80;8.90;;;;;;;7.52;41.10;99285.52;223461;182;136454;-72
2023/03/29 20:29:22;;;;;;;18.90;9.70;;;;;;;7.44;41.41;99283.95;223561;196;138430;-72
2023/03/29 20:34:26;;;;;;;20.80;9.30;;;;;;;7.44;41.26;99282.56;223498;182;136727;-73
2023/03/29 20:39:30;;;;;;;22.10;9.80;;;;;;;7.43;41.05;99271.16;223299;182;145478;-73
2023/03/29 20:44:33;;;;;;;20.30;10.40;;;;;;;7.41;41.37;99263.48;223379;182;138649;-73
2023/03/29 20:49:37;;;;;;;23.30;10.80;;;;;;;7.34;42.73;99261.30;223534;182;137035;-74
2023/03/29 20:54:43;;;;;;;15.70;9.40;;;;;;;7.20;43.02;99255.75;223488;182;146065;-74
2023/03/29 20:59:47;;;;;;;21.80;10.30;;;;;;;7.15;42.23;99253.34;223442;182;138699;-74
2023/03/29 21:04:52;;;;;;;19.70;10.20;;;;;;;7.15;42.08;99255.78;221277;182;136855;-72
2023/03/29 21:09:56;;;;;;;23.00;10.10;;;;;;;7.12;42.13;99250.64;223529;182;145787;-72
2023/03/29 21:15:01;;;;;;;23.20;10.20;;;;;;;7.14;42.08;99241.93;223478;183;138462;-72
2023/03/29 21:20:11;;;;;;;22.70;10.70;;;;;;;7.07;42.22;99234.64;223486;182;136537;-72
2023/03/29 21:25:15;;;;;;;19.80;10.30;;;;;;;7.04;42.30;99227.55;223441;182;145022;-71
2023/03/29 21:30:18;;;;;;;19.90;10.20;;;;;;;7.03;42.29;99224.39;222992;182;138531;-73
2023/03/29 21:35:22;;;;;;;20.10;10.40;;;;;;;6.97;42.45;99226.44;223037;186;136895;-73
2023/03/29 21:40:26;;;;;;;19.70;9.90;;;;;;;6.93;42.43;99228.73;223561;183;145114;-73
2023/03/29 21:45:29;;;;;;;21.30;10.20;;;;;;;6.92;42.42;99231.25;223479;191;138798;-74
2023/03/29 21:50:33;;;;;;;19.70;11.00;;;;;;;6.82;43.11;99230.41;223525;182;136829;-74
2023/03/29 21:55:36;;;;;;;20.00;11.00;;;;;;;6.69;43.70;99236.98;223492;182;146271;-74
2023/03/29 22:00:40;;;;;;;18.60;10.00;;;;;;;6.62;43.60;99236.05;223465;181;138799;-74
2023/03/29 22:05:55;;;;;;;26.30;10.90;;;;;;;6.54;44.52;99229.87;223529;182;139965;-73
2023/03/29 22:11:06;;;;;;;29.00;11.20;;;;;;;6.41;44.75;99225.50;223569;212;145582;-73
2023/03/29 22:16:17;;;;;;;23.80;10.70;;;;;;;6.27;45.05;99227.67;223483;182;138328;-73
2023/03/29 22:21:23;;;;;;;24.40;10.60;;;;;;;6.14;45.95;99228.39;223476;192;136344;-74
2023/03/29 22:26:29;;;;;;;22.00;11.90;;;;;;;5.98;47.24;99231.48;223666;182;145226;-72
2023/03/29 22:31:33;;;;;;;26.30;14.90;;;;;;;5.83;48.10;99238.21;223142;182;138681;-72
2023/03/29 22:36:36;;;;;;;35.00;14.50;;;;;;;5.72;48.74;99232.70;223227;182;138066;-73
2023/03/29 22:41:40;;;;;;;33.20;16.60;;;;;;;5.56;49.63;99232.74;223532;183;147013;-72
2023/03/29 22:46:44;;;;;;;34.60;18.40;;;;;;;5.39;50.40;99234.84;223661;182;139294;-72
2023/03/29 22:51:47;;;;;;;34.20;18.40;;;;;;;5.28;50.66;99236.65;223530;182;136824;-72
2023/03/29 22:56:51;;;;;;;35.20;18.10;;;;;;;5.20;50.97;99228.87;223493;182;146990;-72
2023/03/29 23:02:06;;;;;;;31.40;17.60;;;;;;;5.16;51.03;99225.65;222954;182;138835;-73
2023/03/29 23:07:10;;;;;;;32.70;17.00;;;;;;;5.08;51.58;99219.09;223478;182;137718;-73
2023/03/29 23:12:15;;;;;;;34.80;16.90;;;;;;;4.99;52.12;99207.12;223435;181;146961;-72
2023/03/29 23:17:19;;;;;;;37.10;18.00;;;;;;;4.92;52.03;99200.17;223481;211;141314;-72
2023/03/29 23:22:23;;;;;;;32.20;17.50;;;;;;;4.90;52.17;99195.48;223517;182;137505;-73
2023/03/29 23:27:27;;;;;;;36.10;17.90;;;;;;;4.94;52.53;99195.52;223498;183;147033;-72
2023/03/29 23:32:30;;;;;;;36.60;17.00;;;;;;;5.00;52.88;99198.11;223458;182;138241;-73
2023/03/29 23:37:34;;;;;;;31.00;16.90;;;;;;;5.04;53.31;99196.04;223385;182;137303;-72
2023/03/29 23:42:39;;;;;;;40.60;18.10;;;;;;;5.08;53.43;99188.31;223416;182;147394;-72
2023/03/29 23:47:44;;;;;;;38.50;18.80;;;;;;;5.12;53.38;99181.67;223553;195;140042;-72
2023/03/29 23:52:48;;;;;;;33.60;17.50;;;;;;;5.12;53.43;99172.85;223598;182;137129;-72
2023/03/29 23:57:51;;;;;;;37.00;17.90;;;;;;;5.10;53.56;99165.20;223500;183;147221;-73
